Time;durP1;ratioP1;P1;durP2;ratioP2;P2;SDS_P1;SDS_P2;PMS_P1;PMS_P2;Temp;Humidity;BMP_temperature;BMP_pressure;BME280_temperature;BME280_humidity;BME280_pressure;Samples;Min_cycle;Max_cycle;Signal;HPM_P1;HPM_P2
2021/11/22 00:00:18;;;;;;;5.35;1.40;;;;;;;1.21;100.00;102260.31;5014946;28;20026;-78
2021/11/22 00:02:45;;;;;;;7.13;1.70;;;;;;;1.20;100.00;102268.25;5014531;28;20084;-78
2021/11/22 00:05:11;;;;;;;7.85;1.55;;;;;;;1.17;100.00;102276.19;5015136;28;20038;-78
2021/11/22 00:07:36;;;;;;;8.85;1.67;;;;;;;1.12;100.00;102271.09;5014404;28;20397;-79
2021/11/22 00:10:04;;;;;;;10.80;1.73;;;;;;;1.10;100.00;102277.25;5014935;28;20033;-79
2021/11/22 00:12:30;;;;;;;8.77;1.42;;;;;;;1.06;100.00;102276.50;5014285;28;20030;-78
2021/11/22 00:14:56;;;;;;;7.57;1.60;;;;;;;1.03;100.00;102272.19;5014530;28;20026;-78
2021/11/22 00:17:21;;;;;;;9.88;1.77;;;;;;;1.01;100.00;102270.50;5014013;28;20050;-79
2021/11/22 00:19:47;;;;;;;7.43;1.63;;;;;;;0.99;100.00;102285.44;5012814;28;20056;-79
2021/11/22 00:22:12;;;;;;;5.53;1.52;;;;;;;0.94;100.00;102277.69;5014608;28;20079;-79
2021/11/22 00:24:38;;;;;;;13.40;2.10;;;;;;;0.90;100.00;102286.53;5014024;28;20029;-79
2021/11/22 00:27:04;;;;;;;8.57;1.50;;;;;;;0.88;100.00;102286.56;5014265;28;20034;-78
2021/11/22 00:29:29;;;;;;;7.00;1.70;;;;;;;0.86;100.00;102292.75;5014071;28;20034;-77
2021/11/22 00:31:54;;;;;;;6.13;1.80;;;;;;;0.83;100.00;102292.84;5014194;28;20049;-78
2021/11/22 00:34:20;;;;;;;11.68;1.80;;;;;;;0.80;100.00;102295.53;5014321;28;20040;-78
2021/11/22 00:36:46;;;;;;;8.02;1.67;;;;;;;0.79;100.00;102302.56;5013797;28;20026;-78
2021/11/22 00:39:12;;;;;;;11.05;2.20;;;;;;;0.77;100.00;102298.25;5012965;28;20030;-78
2021/11/22 00:41:37;;;;;;;9.32;1.65;;;;;;;0.76;100.00;102310.50;5013711;28;20117;-78
2021/11/22 00:44:03;;;;;;;18.33;2.20;;;;;;;0.75;100.00;102308.75;5013991;28;20088;-78
2021/11/22 00:46:28;;;;;;;12.70;2.03;;;;;;;0.74;100.00;102314.03;5014246;28;20486;-79
2021/11/22 00:48:53;;;;;;;8.63;1.80;;;;;;;0.73;100.00;102322.78;5013478;28;20060;-79
2021/11/22 00:51:19;;;;;;;9.73;1.80;;;;;;;0.70;100.00;102323.72;5013819;28;20026;-78
2021/11/22 00:53:44;;;;;;;14.82;1.75;;;;;;;0.69;100.00;102328.13;5013564;28;20030;-78
2021/11/22 00:56:10;;;;;;;14.18;1.95;;;;;;;0.69;100.00;102324.66;5013841;28;20061;-79
2021/11/22 00:58:36;;;;;;;9.73;1.70;;;;;;;0.68;100.00;102330.78;5013295;28;20034;-78
2021/11/22 01:01:01;;;;;;;7.25;1.88;;;;;;;0.67;100.00;102331.66;5013712;28;20026;-79
2021/11/22 01:03:27;;;;;;;9.20;2.13;;;;;;;0.64;100.00;102342.22;5013612;28;20040;-79
2021/11/22 01:05:52;;;;;;;11.52;1.67;;;;;;;0.65;100.00;102336.09;5012097;28;20164;-78
2021/11/22 01:08:17;;;;;;;16.63;1.90;;;;;;;0.67;100.00;102342.16;5012463;28;20033;-78
2021/11/22 01:10:44;;;;;;;14.82;2.17;;;;;;;0.70;100.00;102342.94;5013176;28;20037;-79
2021/11/22 01:13:10;;;;;;;11.70;1.60;;;;;;;0.74;100.00;102353.34;5013653;28;20481;-78
2021/11/22 01:15:35;;;;;;;8.82;2.05;;;;;;;0.75;100.00;102348.06;5012773;28;20041;-77
2021/11/22 01:18:01;;;;;;;12.15;2.38;;;;;;;0.77;100.00;102355.88;5012388;28;20471;-78
2021/11/22 01:20:29;;;;;;;8.18;2.38;;;;;;;0.78;100.00;102352.38;5013565;28;20038;-78
2021/11/22 01:23:01;;;;;;;16.35;2.13;;;;;;;0.80;100.00;102355.81;5013015;28;20030;-78
2021/11/22 01:25:26;;;;;;;14.15;2.67;;;;;;;0.76;100.00;102362.91;5013563;28;20050;-78
2021/11/22 01:27:52;;;;;;;7.72;1.60;;;;;;;0.72;100.00;102358.63;5012813;28;20072;-78
2021/11/22 01:30:18;;;;;;;8.93;1.75;;;;;;;0.75;100.00;102363.78;5012251;28;20037;-79
2021/11/22 01:32:44;;;;;;;11.35;1.95;;;;;;;0.76;100.00;102372.50;5012970;28;20107;-78
2021/11/22 01:35:09;;;;;;;19.30;2.10;;;;;;;0.74;100.00;102371.69;5013272;28;20466;-77
2021/11/22 01:37:35;;;;;;;15.32;3.20;;;;;;;0.72;100.00;102382.22;5013221;28;20117;-79
2021/11/22 01:40:02;;;;;;;15.02;2.63;;;;;;;0.71;100.00;102383.09;5012699;28;20033;-78
2021/11/22 01:42:27;;;;;;;10.00;2.20;;;;;;;0.70;100.00;102399.72;5013060;28;20038;-79
2021/11/22 01:44:52;;;;;;;7.32;2.20;;;;;;;0.69;100.00;102398.84;5012364;28;20092;-79
2021/11/22 01:47:18;;;;;;;10.52;2.00;;;;;;;0.63;100.00;102399.00;5013218;28;20042;-78
2021/11/22 01:49:43;;;;;;;9.05;1.95;;;;;;;0.56;100.00;102397.44;5012698;28;20052;-79
2021/11/22 01:52:10;;;;;;;15.25;2.30;;;;;;;0.53;100.00;102414.06;5013033;28;20026;-78
2021/11/22 01:54:36;;;;;;;7.10;2.17;;;;;;;0.48;100.00;102405.47;5013045;28;20037;-79
2021/11/22 01:57:01;;;;;;;9.75;2.00;;;;;;;0.43;100.00;102407.31;5012248;28;20041;-78
2021/11/22 01:59:27;;;;;;;6.15;1.60;;;;;;;0.39;100.00;102407.41;5013097;28;20400;-78
2021/11/22 02:01:52;;;;;;;10.82;1.90;;;;;;;0.40;100.00;102417.00;5012513;28;20061;-79
2021/11/22 02:04:17;;;;;;;14.93;2.15;;;;;;;0.41;100.00;102421.38;5012850;28;20507;-78
2021/11/22 02:06:43;;;;;;;10.93;1.98;;;;;;;0.41;100.00;102429.22;5031515;22;20060;-77
2021/11/22 02:09:09;;;;;;;12.07;2.00;;;;;;;0.38;100.00;102422.28;5011642;28;20033;-78
2021/11/22 02:11:36;;;;;;;27.73;3.17;;;;;;;0.34;100.00;102426.75;5012693;28;20045;-78
2021/11/22 02:14:02;;;;;;;10.98;1.90;;;;;;;0.32;100.00;102432.91;5012210;28;20364;-78
2021/11/22 02:16:27;;;;;;;6.05;2.30;;;;;;;0.28;100.00;102429.47;5012801;28;20034;-78
2021/11/22 02:18:55;;;;;;;5.45;1.60;;;;;;;0.22;100.00;102429.59;5012140;28;20110;-78
2021/11/22 02:21:21;;;;;;;7.43;2.47;;;;;;;0.19;100.00;102434.06;5012653;28;20470;-78
2021/11/22 02:23:46;;;;;;;8.65;1.90;;;;;;;0.19;100.00;102436.69;5012161;28;20030;-77
2021/11/22 02:26:12;;;;;;;8.90;1.40;;;;;;;0.17;100.00;102434.09;5011550;28;20030;-78
2021/11/22 02:28:37;;;;;;;12.00;2.08;;;;;;;0.13;100.00;102432.44;5012533;28;20371;-78
2021/11/22 02:31:02;;;;;;;13.10;2.20;;;;;;;0.12;100.00;102435.94;5012215;28;20056;-78
2021/11/22 02:33:28;;;;;;;9.25;2.00;;;;;;;0.10;100.00;102432.50;5012625;28;20034;-78
2021/11/22 02:35:57;;;;;;;10.68;2.10;;;;;;;0.08;100.00;102450.00;5012037;28;20447;-79
2021/11/22 02:38:26;;;;;;;12.82;1.95;;;;;;;0.06;100.00;102442.19;5012524;28;20470;-79
2021/11/22 02:40:53;;;;;;;8.07;1.88;;;;;;;0.04;100.00;102443.09;5012867;28;20108;-80
2021/11/22 02:43:18;;;;;;;12.82;1.83;;;;;;;0.02;100.00;102444.91;5016143;28;20057;-80
2021/11/22 02:45:43;;;;;;;11.18;2.00;;;;;;;0.01;100.00;102451.03;5016413;28;20040;-77
2021/11/22 02:48:09;;;;;;;8.18;1.58;;;;;;;-0.02;100.00;102454.56;5015813;28;20040;-77
2021/11/22 02:50:34;;;;;;;5.55;1.90;;;;;;;-0.05;100.00;102445.00;5016348;28;20172;-79
2021/11/22 02:53:00;;;;;;;14.43;2.10;;;;;;;-0.08;100.00;102452.91;5015679;28;20034;-79
2021/11/22 02:55:25;;;;;;;7.30;1.65;;;;;;;-0.13;100.00;102464.38;5015957;28;20038;-78
2021/11/22 02:57:52;;;;;;;8.23;2.08;;;;;;;-0.14;100.00;102460.03;5015444;28;20148;-77
2021/11/22 03:00:22;;;;;;;9.48;1.48;;;;;;;-0.18;100.00;102464.44;5016124;28;20029;-78
2021/11/22 03:02:48;;;;;;;10.43;1.48;;;;;;;-0.20;100.00;102469.72;5016070;28;20117;-78
2021/11/22 03:05:13;;;;;;;8.60;1.15;;;;;;;-0.21;100.00;102475.84;5015499;28;20501;-78
2021/11/22 03:07:40;;;;;;;5.50;1.20;;;;;;;-0.24;100.00;102473.31;5014630;28;20049;-78
2021/11/22 03:10:08;;;;;;;10.40;1.48;;;;;;;-0.27;100.00;102481.22;5015685;28;20050;-78
2021/11/22 03:12:35;;;;;;;9.48;1.40;;;;;;;-0.28;100.00;102479.47;5014643;28;20033;-79
2021/11/22 03:15:08;;;;;;;7.68;1.65;;;;;;;-0.29;100.00;102482.97;5015391;28;20034;-79
2021/11/22 03:17:34;;;;;;;7.82;1.33;;;;;;;-0.30;100.00;102485.63;5014528;28;20553;-79
2021/11/22 03:19:59;;;;;;;6.95;1.45;;;;;;;-0.32;100.00;102495.25;5015116;28;20117;-78
2021/11/22 03:22:25;;;;;;;8.43;1.40;;;;;;;-0.38;100.00;102497.09;5015599;28;20061;-78
2021/11/22 03:24:50;;;;;;;7.55;1.58;;;;;;;-0.40;100.00;102501.50;5015435;28;20493;-78
2021/11/22 03:27:15;;;;;;;15.70;1.88;;;;;;;-0.40;100.00;102501.50;5013941;28;20466;-78
2021/11/22 03:29:41;;;;;;;5.97;1.38;;;;;;;-0.41;100.00;102498.91;5015716;28;20030;-79
2021/11/22 03:32:06;;;;;;;9.65;1.40;;;;;;;-0.43;100.00;102509.41;5015108;28;20076;-80
2021/11/22 03:34:32;;;;;;;6.47;1.38;;;;;;;-0.44;100.00;102505.03;5014348;28;20130;-80
2021/11/22 03:37:05;;;;;;;7.90;1.20;;;;;;;-0.49;100.00;102511.25;5014894;28;20455;-79
2021/11/22 03:39:32;;;;;;;9.20;1.27;;;;;;;-0.54;100.00;102506.09;5015221;28;20030;-80
2021/11/22 03:42:01;;;;;;;5.40;1.15;;;;;;;-0.57;100.00;102516.59;5015027;28;20025;-79
2021/11/22 03:44:27;;;;;;;6.68;1.30;;;;;;;-0.56;100.00;102513.97;5015245;28;20042;-79
2021/11/22 03:46:54;;;;;;;2.63;0.95;;;;;;;-0.58;100.00;102530.59;5015368;28;20036;-79
2021/11/22 03:49:20;;;;;;;10.45;1.40;;;;;;;-0.63;100.00;102528.03;5014663;28;20034;-80
2021/11/22 03:51:46;;;;;;;7.85;1.67;;;;;;;-0.61;100.00;102538.47;5015290;28;20034;-81
2021/11/22 03:54:12;;;;;;;8.55;1.55;;;;;;;-0.64;100.00;102533.28;5014022;28;20046;-80
2021/11/22 03:56:38;;;;;;;5.78;1.50;;;;;;;-0.65;100.00;102537.66;5015106;28;20044;-80
2021/11/22 03:59:05;;;;;;;5.03;1.10;;;;;;;-0.65;100.00;102542.03;5013320;28;20038;-79
2021/11/22 04:01:31;;;;;;;6.25;1.40;;;;;;;-0.65;100.00;102544.66;5014933;28;20064;-78
2021/11/22 04:03:57;;;;;;;6.43;1.27;;;;;;;-0.65;100.00;102539.41;5014780;28;20061;-77
2021/11/22 04:06:22;;;;;;;5.78;1.40;;;;;;;-0.66;100.00;102550.75;5013075;28;20034;-78
2021/11/22 04:08:48;;;;;;;4.57;1.10;;;;;;;-0.67;100.00;102549.91;5014532;28;20045;-80
2021/11/22 04:11:13;;;;;;;8.90;1.40;;;;;;;-0.66;100.00;102554.22;5015045;28;20394;-80
2021/11/22 04:13:39;;;;;;;4.07;1.17;;;;;;;-0.67;100.00;102556.84;5015631;28;20084;-79
2021/11/22 04:16:05;;;;;;;9.45;1.50;;;;;;;-0.65;100.00;102566.41;5014633;28;20435;-78
2021/11/22 04:18:31;;;;;;;4.97;1.67;;;;;;;-0.64;100.00;102568.16;5015119;28;20034;-78
2021/11/22 04:20:56;;;;;;;9.20;1.65;;;;;;;-0.63;100.00;102576.84;5014693;28;20030;-78
2021/11/22 04:23:23;;;;;;;5.30;1.40;;;;;;;-0.63;100.00;102572.47;5013942;28;20038;-78
2021/11/22 04:25:48;;;;;;;6.65;1.60;;;;;;;-0.63;100.00;102580.31;5014304;28;20084;-78
2021/11/22 04:28:13;;;;;;;11.85;1.58;;;;;;;-0.60;100.00;102585.53;5012815;28;20038;-78
2021/11/22 04:30:40;;;;;;;14.95;1.73;;;;;;;-0.61;100.00;102583.78;5014428;28;20076;-77
2021/11/22 04:33:06;;;;;;;16.58;1.77;;;;;;;-0.61;100.00;102577.69;5013962;28;20033;-79
2021/11/22 04:35:32;;;;;;;16.42;2.17;;;;;;;-0.62;100.00;102576.81;5014172;28;20033;-78
2021/11/22 04:37:57;;;;;;;8.93;1.52;;;;;;;-0.63;100.00;102585.53;5014102;28;20037;-78
2021/11/22 04:40:23;;;;;;;5.25;1.13;;;;;;;-0.64;100.00;102583.84;5013748;28;20045;-78
2021/11/22 04:42:49;;;;;;;12.05;1.50;;;;;;;-0.63;100.00;102579.47;5014245;28;20032;-78
2021/11/22 04:45:21;;;;;;;8.23;1.45;;;;;;;-0.63;100.00;102589.91;5013560;28;20030;-78
2021/11/22 04:47:48;;;;;;;5.10;1.27;;;;;;;-0.64;100.00;102596.91;5014351;28;20030;-78
2021/11/22 04:50:14;;;;;;;9.13;1.35;;;;;;;-0.63;100.00;102597.75;5012040;28;20465;-78
2021/11/22 04:52:39;;;;;;;12.68;1.65;;;;;;;-0.64;100.00;102602.16;5013445;28;20041;-77
2021/11/22 04:55:05;;;;;;;12.63;1.65;;;;;;;-0.64;100.00;102598.66;5013737;28;20100;-79
2021/11/22 04:57:31;;;;;;;3.78;1.23;;;;;;;-0.66;100.00;102605.66;5013328;28;20029;-78
2021/11/22 05:00:22;;;;;;;6.32;1.30;;;;;;;-0.66;100.00;102606.50;5013573;28;20030;-78
2021/11/22 05:02:48;;;;;;;8.65;1.38;;;;;;;-0.67;100.00;102609.16;5011743;28;20489;-79
2021/11/22 05:05:15;;;;;;;4.13;1.27;;;;;;;-0.68;100.00;102610.06;5013024;28;20038;-79
2021/11/22 05:07:41;;;;;;;6.93;1.13;;;;;;;-0.70;100.00;102612.69;5013845;28;20058;-78
2021/11/22 05:10:08;;;;;;;4.72;1.50;;;;;;;-0.72;100.00;102614.44;5013632;28;20088;-79
2021/11/22 05:12:34;;;;;;;4.82;1.13;;;;;;;-0.74;100.00;102616.25;5013947;28;20034;-79
2021/11/22 05:14:59;;;;;;;6.47;1.40;;;;;;;-0.75;100.00;102623.22;5013608;28;20133;-79
2021/11/22 05:17:25;;;;;;;12.50;1.85;;;;;;;-0.74;100.00;102622.31;5012986;28;20121;-79
2021/11/22 05:19:51;;;;;;;10.80;1.60;;;;;;;-0.75;100.00;102622.34;5013838;28;20042;-79
2021/11/22 05:22:21;;;;;;;7.18;1.63;;;;;;;-0.77;100.00;102629.34;5013000;28;20034;-79
2021/11/22 05:24:50;;;;;;;7.40;1.20;;;;;;;-0.78;100.00;102633.69;5013490;28;20500;-79
2021/11/22 05:27:24;;;;;;;5.93;1.52;;;;;;;-0.78;100.00;102633.69;5012929;28;20079;-79
2021/11/22 05:29:50;;;;;;;9.90;1.85;;;;;;;-0.76;100.00;102642.41;5013255;28;20052;-79
2021/11/22 05:32:17;;;;;;;10.70;1.60;;;;;;;-0.78;100.00;102638.94;5012678;28;20476;-78
2021/11/22 05:34:48;;;;;;;12.00;1.83;;;;;;;-0.78;100.00;102643.31;5013288;28;20030;-79
2021/11/22 05:37:15;;;;;;;9.77;2.72;;;;;;;-0.81;100.00;102640.72;5012689;28;20080;-79
2021/11/22 05:39:41;;;;;;;5.97;1.10;;;;;;;-0.81;100.00;102646.81;5013244;28;20609;-78
2021/11/22 05:42:07;;;;;;;9.00;1.27;;;;;;;-0.82;100.00;102646.84;5013105;28;20072;-78
2021/11/22 05:44:34;;;;;;;10.52;1.20;;;;;;;-0.83;100.00;102645.97;5012527;28;20539;-78
2021/11/22 05:47:01;;;;;;;8.38;1.33;;;;;;;-0.84;100.00;102648.63;5013129;28;20518;-78
2021/11/22 05:49:30;;;;;;;3.70;1.15;;;;;;;-0.87;100.00;102652.13;5012515;28;20104;-78
2021/11/22 05:51:55;;;;;;;19.55;2.25;;;;;;;-0.88;100.00;102660.88;5013026;28;20034;-78
2021/11/22 05:54:23;;;;;;;11.43;1.52;;;;;;;-0.90;100.00;102663.50;5012561;28;20030;-78
2021/11/22 05:56:48;;;;;;;3.33;1.00;;;;;;;-0.90;100.00;102665.25;5012827;28;20036;-78
2021/11/22 05:59:14;;;;;;;2.97;1.10;;;;;;;-0.93;100.00;102668.75;5012794;28;20026;-78
2021/11/22 06:01:39;;;;;;;7.20;1.30;;;;;;;-0.94;100.00;102672.28;5012881;28;20458;-79
2021/11/22 06:04:04;;;;;;;4.10;1.23;;;;;;;-0.94;100.00;102679.22;5011622;28;20034;-77
2021/11/22 06:06:30;;;;;;;5.40;1.23;;;;;;;-0.98;100.00;102685.41;5012478;28;20037;-79
2021/11/22 06:08:55;;;;;;;11.30;2.03;;;;;;;-1.01;100.00;102688.06;5012812;28;20080;-80
2021/11/22 06:11:21;;;;;;;9.30;1.45;;;;;;;-1.02;100.00;102681.09;5011413;28;20038;-78
2021/11/22 06:13:46;;;;;;;0.85;0.65;;;;;;;-1.04;100.00;102688.94;5012594;28;20048;-77
2021/11/22 06:16:11;;;;;;;8.55;2.08;;;;;;;-1.06;100.00;102695.91;5013900;28;20070;-77
2021/11/22 06:18:37;;;;;;;6.72;1.48;;;;;;;-1.08;100.00;102695.09;5016387;28;20478;-78
2021/11/22 06:21:02;;;;;;;8.82;1.45;;;;;;;-1.10;100.00;102700.31;5017295;28;20034;-78
2021/11/22 06:23:28;;;;;;;4.72;1.30;;;;;;;-1.12;100.00;102701.22;5016283;28;20030;-78
2021/11/22 06:25:53;;;;;;;3.58;1.23;;;;;;;-1.17;100.00;102703.03;5016391;28;20044;-80
2021/11/22 06:28:19;;;;;;;4.00;1.27;;;;;;;-1.22;100.00;102710.03;5014947;28;20038;-77
2021/11/22 06:30:46;;;;;;;5.93;1.40;;;;;;;-1.26;100.00;102711.84;5016319;28;20076;-80
2021/11/22 06:33:12;;;;;;;4.40;1.00;;;;;;;-1.30;99.92;102713.63;5016262;28;20036;-80
2021/11/22 06:35:37;;;;;;;5.43;1.20;;;;;;;-1.33;99.53;102718.88;5016107;28;20030;-79
2021/11/22 06:38:04;;;;;;;5.40;1.30;;;;;;;-1.33;100.00;102729.34;5014950;28;20042;-79
2021/11/22 06:40:29;;;;;;;7.05;2.05;;;;;;;-1.33;100.00;102728.44;5015821;28;20037;-79
2021/11/22 06:42:55;;;;;;;1.77;0.82;;;;;;;-1.36;99.97;102731.94;5016110;28;20072;-79
2021/11/22 06:45:20;;;;;;;8.95;1.90;;;;;;;-1.36;99.79;102731.09;5016203;28;20120;-79
2021/11/22 06:47:46;;;;;;;6.15;1.75;;;;;;;-1.39;99.79;102734.59;5015890;28;20042;-78
2021/11/22 06:50:12;;;;;;;4.60;1.92;;;;;;;-1.42;99.10;102739.84;5016294;28;20041;-79
2021/11/22 06:52:38;;;;;;;4.28;1.60;;;;;;;-1.43;98.24;102752.06;5014454;28;20045;-79
2021/11/22 06:55:05;;;;;;;5.22;1.70;;;;;;;-1.44;97.76;102755.53;5015918;28;20095;-79
2021/11/22 06:57:30;;;;;;;6.68;1.52;;;;;;;-1.42;98.01;102763.34;5015424;28;20026;-79
2021/11/22 06:59:56;;;;;;;5.07;1.40;;;;;;;-1.43;98.38;102770.34;5015815;28;20030;-79
2021/11/22 07:02:24;;;;;;;2.40;1.40;;;;;;;-1.40;98.08;102776.41;5016053;28;20026;-79
2021/11/22 07:04:49;;;;;;;2.67;1.30;;;;;;;-1.42;97.71;102785.13;5016028;28;20084;-79
2021/11/22 07:07:15;;;;;;;1.42;1.13;;;;;;;-1.40;97.22;102789.47;5014520;28;20053;-79
2021/11/22 07:09:44;;;;;;;5.53;3.38;;;;;;;-1.37;97.94;102792.03;5015387;28;20034;-79
2021/11/22 07:12:10;;;;;;;16.48;8.10;;;;;;;-1.37;97.82;102792.91;5015723;28;20387;-79
2021/11/22 07:14:38;;;;;;;20.38;9.30;;;;;;;-1.36;97.40;102791.16;5015163;28;20026;-79
2021/11/22 07:17:04;;;;;;;13.20;6.57;;;;;;;-1.34;96.98;102805.09;5015542;28;20033;-79
2021/11/22 07:19:30;;;;;;;12.52;5.57;;;;;;;-1.31;96.73;102805.06;5015358;28;20433;-79
2021/11/22 07:21:59;;;;;;;11.38;4.28;;;;;;;-1.29;97.63;102813.75;5015684;28;20029;-80
2021/11/22 07:24:25;;;;;;;9.25;3.60;;;;;;;-1.28;98.03;102812.88;5014341;28;20038;-80
2021/11/22 07:26:50;;;;;;;8.38;3.08;;;;;;;-1.27;97.57;102818.09;5014833;28;20431;-79
2021/11/22 07:29:16;;;;;;;6.10;2.42;;;;;;;-1.27;97.32;102818.09;5015559;28;20038;-80
2021/11/22 07:31:42;;;;;;;8.68;2.17;;;;;;;-1.23;97.39;102833.72;5015007;28;20378;-78
2021/11/22 07:34:08;;;;;;;7.43;1.92;;;;;;;-1.21;97.71;102832.81;5015501;28;20470;-78
2021/11/22 07:36:33;;;;;;;4.53;1.92;;;;;;;-1.17;97.89;102837.13;5014881;28;20030;-77
2021/11/22 07:38:59;;;;;;;5.72;1.80;;;;;;;-1.16;97.65;102836.25;5015214;28;20117;-77
2021/11/22 07:41:25;;;;;;;4.68;1.60;;;;;;;-1.13;97.61;102845.81;5014986;28;20048;-77
2021/11/22 07:43:50;;;;;;;6.68;1.88;;;;;;;-1.11;97.94;102847.53;5015070;28;20022;-77
2021/11/22 07:46:16;;;;;;;8.77;1.98;;;;;;;-1.08;98.37;102844.88;5015289;28;20041;-77
2021/11/22 07:48:42;;;;;;;5.65;2.10;;;;;;;-1.04;98.89;102857.94;5014676;28;20033;-81
2021/11/22 07:51:07;;;;;;;7.20;1.73;;;;;;;-1.01;99.21;102845.69;5015110;28;20088;-79
2021/11/22 07:53:32;;;;;;;8.48;1.90;;;;;;;-0.98;99.72;102850.88;4995037;28;20038;-79
2021/11/22 07:55:58;;;;;;;4.18;1.30;;;;;;;-0.93;99.71;102858.69;4992460;28;20499;-77
2021/11/22 07:58:24;;;;;;;6.25;1.65;;;;;;;-0.89;99.31;102863.00;4992501;28;20038;-77
2021/11/22 08:00:50;;;;;;;6.78;2.10;;;;;;;-0.82;99.08;102867.28;4992102;28;20062;-77
2021/11/22 08:03:16;;;;;;;5.28;1.98;;;;;;;-0.74;99.66;102864.59;4992488;28;20104;-76
2021/11/22 08:05:42;;;;;;;4.78;2.33;;;;;;;-0.67;100.00;102870.59;4991633;28;20387;-77
2021/11/22 08:08:08;;;;;;;9.20;1.80;;;;;;;-0.61;99.97;102879.25;4992411;28;20117;-77
2021/11/22 08:10:34;;;;;;;7.18;2.00;;;;;;;-0.55;100.00;102876.56;4992052;28;20554;-78
2021/11/22 08:13:08;;;;;;;8.85;2.05;;;;;;;-0.47;99.89;102886.09;4992407;28;20061;-76
2021/11/22 08:15:35;;;;;;;4.07;1.85;;;;;;;-0.39;100.00;102884.25;4991673;28;20038;-76
2021/11/22 08:18:04;;;;;;;9.10;2.20;;;;;;;-0.28;100.00;102891.97;4992173;28;20044;-78
2021/11/22 08:20:29;;;;;;;9.48;2.40;;;;;;;-0.20;100.00;102877.03;4992081;28;20058;-78
2021/11/22 08:22:55;;;;;;;10.38;2.22;;;;;;;-0.10;100.00;102880.41;4991634;28;20453;-78
2021/11/22 08:25:23;;;;;;;11.05;2.17;;;;;;;-0.01;100.00;102880.28;4991960;28;20043;-75
2021/11/22 08:27:53;;;;;;;5.80;2.17;;;;;;;0.11;100.00;102895.81;4991383;28;20038;-78
2021/11/22 08:30:21;;;;;;;4.85;2.17;;;;;;;0.21;100.00;102896.56;4992328;28;20034;-80
2021/11/22 08:32:49;;;;;;;7.82;2.47;;;;;;;0.33;100.00;102901.63;4991687;28;20482;-77
2021/11/22 08:35:15;;;;;;;11.00;2.78;;;;;;;0.47;100.00;102900.56;4991950;28;20501;-80
2021/11/22 08:37:41;;;;;;;8.82;2.85;;;;;;;0.57;100.00;102901.25;4991609;28;20043;-78
2021/11/22 08:40:10;;;;;;;12.35;3.40;;;;;;;0.70;100.00;102908.91;5002156;28;20073;-76
2021/11/22 08:42:36;;;;;;;10.57;3.10;;;;;;;0.81;100.00;102903.50;5009029;28;20030;-76
2021/11/22 08:45:03;;;;;;;7.95;2.90;;;;;;;0.92;100.00;102911.19;5013314;28;20026;-76
2021/11/22 08:47:28;;;;;;;7.68;2.90;;;;;;;1.04;100.00;102913.56;5014107;28;20041;-77
2021/11/22 08:49:54;;;;;;;11.75;2.58;;;;;;;1.15;100.00;102915.16;5013494;28;20046;-78
2021/11/22 08:52:20;;;;;;;8.32;3.25;;;;;;;1.24;100.00;102922.88;5013838;28;20117;-77
2021/11/22 08:54:46;;;;;;;5.93;2.40;;;;;;;1.36;100.00;102911.31;5013587;28;20032;-77
2021/11/22 08:57:12;;;;;;;11.25;3.95;;;;;;;1.46;100.00;102918.06;5013833;28;20026;-77
2021/11/22 08:59:38;;;;;;;16.13;3.42;;;;;;;1.59;100.00;102923.97;5013866;28;20061;-76
2021/11/22 09:02:04;;;;;;;12.38;3.33;;;;;;;1.67;100.00;102929.06;5013173;28;20459;-76
2021/11/22 09:04:29;;;;;;;10.00;4.22;;;;;;;1.77;100.00;102935.84;5013581;28;20044;-76
2021/11/22 09:06:56;;;;;;;7.13;3.53;;;;;;;1.84;100.00;102939.25;5012954;28;20173;-77
2021/11/22 09:09:21;;;;;;;12.77;3.88;;;;;;;1.97;100.00;102931.97;5013699;28;20045;-77
2021/11/22 09:11:47;;;;;;;8.57;3.50;;;;;;;2.07;100.00;102942.22;5013271;28;20037;-77
2021/11/22 09:14:13;;;;;;;11.07;2.75;;;;;;;2.20;100.00;102947.25;5013650;28;20033;-76
2021/11/22 09:16:39;;;;;;;9.25;3.08;;;;;;;2.31;100.00;102947.84;5013434;28;20033;-77
2021/11/22 09:19:04;;;;;;;16.30;3.30;;;;;;;2.43;100.00;102949.34;5012874;28;20030;-76
2021/11/22 09:21:31;;;;;;;6.18;2.50;;;;;;;2.53;100.00;102948.25;5013215;28;20049;-76
2021/11/22 09:23:56;;;;;;;11.57;2.67;;;;;;;2.64;100.00;102951.50;5012914;28;20410;-86
2021/11/22 09:26:22;;;;;;;3.70;2.22;;;;;;;2.75;100.00;102955.63;5013469;28;20080;-76
2021/11/22 09:28:48;;;;;;;12.00;3.13;;;;;;;2.85;100.00;102957.13;5011723;28;20030;-78
2021/11/22 09:31:16;;;;;;;6.70;2.33;;;;;;;2.95;100.00;102963.88;5013485;28;20042;-78
2021/11/22 09:33:46;;;;;;;9.32;2.60;;;;;;;3.05;100.00;102972.44;5013153;28;20092;-78
2021/11/22 09:36:13;;;;;;;10.10;2.60;;;;;;;3.15;100.00;102970.41;5012963;28;20038;-78
2021/11/22 09:38:38;;;;;;;9.52;2.60;;;;;;;3.25;100.00;102974.53;5011952;28;20415;-78
2021/11/22 09:41:04;;;;;;;15.30;2.90;;;;;;;3.37;100.00;102980.41;5012773;28;20034;-77
2021/11/22 09:43:30;;;;;;;15.30;2.78;;;;;;;3.43;100.00;102973.19;5012927;28;20464;-81
2021/11/22 09:45:56;;;;;;;9.63;2.50;;;;;;;3.54;100.00;102988.72;5012669;28;20087;-78
2021/11/22 09:48:21;;;;;;;13.50;2.42;;;;;;;3.63;100.00;102992.88;5012967;28;20453;-80
2021/11/22 09:50:47;;;;;;;9.35;1.88;;;;;;;3.71;100.00;102989.13;5011663;28;20033;-78
2021/11/22 09:53:13;;;;;;;14.82;2.15;;;;;;;3.76;100.00;102991.63;5013040;28;20038;-80
2021/11/22 09:55:38;;;;;;;7.00;2.28;;;;;;;3.79;100.00;102999.47;5012800;28;20472;-74
2021/11/22 09:58:05;;;;;;;9.35;1.70;;;;;;;3.84;100.00;102999.34;5012379;28;20057;-75
2021/11/22 10:00:40;;;;;;;19.05;2.15;;;;;;;3.89;100.00;102994.78;5012809;28;20021;-76
2021/11/22 10:03:11;;;;;;;6.80;1.90;;;;;;;3.95;100.00;102999.03;5012269;28;20113;-75
2021/11/22 10:05:37;;;;;;;5.65;2.50;;;;;;;3.99;100.00;102998.91;5012720;28;20026;-75
2021/11/22 10:08:08;;;;;;;17.05;2.28;;;;;;;4.04;100.00;102996.13;5012165;28;20398;-76
2021/11/22 10:10:40;;;;;;;8.38;2.13;;;;;;;4.07;100.00;103001.31;5013173;28;20364;-76
2021/11/22 10:13:29;;;;;;;6.72;1.70;;;;;;;4.11;100.00;103004.75;5012251;28;20120;-74
2021/11/22 10:15:58;;;;;;;3.58;1.50;;;;;;;4.13;100.00;103002.91;5012157;28;20105;-75
2021/11/22 10:18:32;;;;;;;12.05;2.00;;;;;;;4.18;100.00;103008.91;5012606;28;20041;-75
2021/11/22 10:21:07;;;;;;;8.98;1.77;;;;;;;4.23;99.90;103005.22;5012656;28;20034;-77
2021/11/22 10:23:35;;;;;;;4.70;2.05;;;;;;;4.28;99.68;103004.25;5012622;28;20109;-78
2021/11/22 10:26:01;;;;;;;6.38;1.73;;;;;;;4.33;99.34;103010.22;5010952;28;20072;-75
2021/11/22 10:28:31;;;;;;;9.27;1.95;;;;;;;4.36;98.98;103007.50;5012406;28;20038;-76
2021/11/22 10:30:57;;;;;;;14.02;2.35;;;;;;;4.39;98.70;102996.88;5010807;28;20038;-75
2021/11/22 10:33:25;;;;;;;5.25;1.92;;;;;;;4.46;98.39;103001.03;5012701;28;20038;-76
2021/11/22 10:35:54;;;;;;;6.60;2.00;;;;;;;4.58;98.49;102999.81;5012520;28;20450;-76
2021/11/22 10:38:25;;;;;;;11.55;3.30;;;;;;;4.82;98.64;102999.94;5012385;28;20080;-76
2021/11/22 10:41:04;;;;;;;9.45;1.80;;;;;;;5.13;98.83;103005.09;5012411;28;20026;-74
2021/11/22 10:43:43;;;;;;;6.43;1.65;;;;;;;5.45;98.28;102997.88;5011900;28;20036;-76
2021/11/22 10:46:10;;;;;;;6.75;1.58;;;;;;;5.75;98.33;103006.50;5009280;28;20084;-77
2021/11/22 10:48:37;;;;;;;4.28;1.20;;;;;;;5.90;93.55;102996.31;5011071;28;20026;-77
2021/11/22 10:51:21;;;;;;;3.67;1.35;;;;;;;5.89;89.85;102998.06;5011815;28;20041;-75
2021/11/22 10:54:03;;;;;;;8.38;1.65;;;;;;;5.86;87.49;103000.84;5012521;28;20449;-76
2021/11/22 10:56:39;;;;;;;8.48;1.60;;;;;;;5.83;87.98;103003.59;5011324;28;20040;-76
2021/11/22 10:59:14;;;;;;;10.60;2.40;;;;;;;5.81;86.99;103002.78;5011840;28;20056;-75
2021/11/22 11:01:41;;;;;;;3.58;1.17;;;;;;;5.82;87.27;103012.41;5012564;28;20025;-75
2021/11/22 11:04:16;;;;;;;5.97;1.40;;;;;;;5.80;87.02;103011.63;5015579;28;20033;-75
2021/11/22 11:07:06;;;;;;;10.55;1.45;;;;;;;5.77;87.14;103012.59;5015822;28;20026;-76
2021/11/22 11:09:34;;;;;;;16.13;2.40;;;;;;;5.76;87.70;103010.88;5015751;28;20029;-74
2021/11/22 11:12:14;;;;;;;12.65;1.75;;;;;;;5.76;87.61;103012.63;5015284;28;20029;-76
2021/11/22 11:14:51;;;;;;;5.40;1.20;;;;;;;5.83;88.03;103020.28;5015832;28;20121;-75
2021/11/22 11:17:24;;;;;;;8.82;1.70;;;;;;;6.02;88.47;103018.78;5015318;28;20467;-77